sensor_id;sensor_type;location;lat;lon;timestamp;P1;durP1;ratioP1;P2;durP2;ratioP2
73814;SDS011;62145;55.648;37.602;2022-08-14T00:00:23;19.23;;;13.13;;
73814;SDS011;62145;55.648;37.602;2022-08-14T00:02:49;20.17;;;13.25;;
73814;SDS011;62145;55.648;37.602;2022-08-14T00:05:17;21.87;;;13.30;;
73814;SDS011;62145;55.648;37.602;2022-08-14T00:07:44;20.60;;;13.43;;
73814;SDS011;62145;55.648;37.602;2022-08-14T00:10:13;21.15;;;13.30;;
73814;SDS011;62145;55.648;37.602;2022-08-14T00:12:45;19.38;;;12.65;;
73814;SDS011;62145;55.648;37.602;2022-08-14T00:15:37;18.65;;;12.55;;
73814;SDS011;62145;55.648;37.602;2022-08-14T00:18:05;16.73;;;12.77;;
73814;SDS011;62145;55.648;37.602;2022-08-14T00:20:33;20.23;;;12.60;;
73814;SDS011;62145;55.648;37.602;2022-08-14T00:23:04;18.50;;;12.95;;
73814;SDS011;62145;55.648;37.602;2022-08-14T00:25:31;20.92;;;13.18;;
73814;SDS011;62145;55.648;37.602;2022-08-14T00:27:56;20.02;;;13.48;;
73814;SDS011;62145;55.648;37.602;2022-08-14T00:30:22;21.40;;;13.57;;
73814;SDS011;62145;55.648;37.602;2022-08-14T00:32:48;19.17;;;14.00;;
73814;SDS011;62145;55.648;37.602;2022-08-14T00:35:14;19.52;;;13.93;;
73814;SDS011;62145;55.648;37.602;2022-08-14T00:37:41;19.57;;;14.03;;
73814;SDS011;62145;55.648;37.602;2022-08-14T00:40:08;21.42;;;14.93;;
73814;SDS011;62145;55.648;37.602;2022-08-14T00:42:36;21.35;;;14.48;;
73814;SDS011;62145;55.648;37.602;2022-08-14T00:45:02;20.13;;;14.25;;
73814;SDS011;62145;55.648;37.602;2022-08-14T00:47:29;25.87;;;14.27;;
73814;SDS011;62145;55.648;37.602;2022-08-14T00:49:55;25.83;;;14.77;;
73814;SDS011;62145;55.648;37.602;2022-08-14T00:52:21;25.25;;;14.55;;
73814;SDS011;62145;55.648;37.602;2022-08-14T00:54:48;27.45;;;15.18;;
73814;SDS011;62145;55.648;37.602;2022-08-14T00:57:18;28.40;;;16.33;;
73814;SDS011;62145;55.648;37.602;2022-08-14T00:59:46;23.65;;;14.30;;
73814;SDS011;62145;55.648;37.602;2022-08-14T01:02:12;28.35;;;15.43;;
73814;SDS011;62145;55.648;37.602;2022-08-14T01:04:40;26.10;;;15.93;;
73814;SDS011;62145;55.648;37.602;2022-08-14T01:07:06;27.60;;;16.13;;
73814;SDS011;62145;55.648;37.602;2022-08-14T01:09:32;27.53;;;15.70;;
73814;SDS011;62145;55.648;37.602;2022-08-14T01:12:00;28.73;;;17.08;;
73814;SDS011;62145;55.648;37.602;2022-08-14T01:14:28;27.23;;;16.58;;
73814;SDS011;62145;55.648;37.602;2022-08-14T01:16:54;33.43;;;18.33;;
73814;SDS011;62145;55.648;37.602;2022-08-14T01:19:20;31.85;;;18.30;;
73814;SDS011;62145;55.648;37.602;2022-08-14T01:22:04;32.00;;;18.20;;
73814;SDS011;62145;55.648;37.602;2022-08-14T01:24:32;29.95;;;18.35;;
73814;SDS011;62145;55.648;37.602;2022-08-14T01:26:58;32.57;;;17.97;;
73814;SDS011;62145;55.648;37.602;2022-08-14T01:29:25;29.45;;;16.73;;
73814;SDS011;62145;55.648;37.602;2022-08-14T01:31:51;29.92;;;16.83;;
73814;SDS011;62145;55.648;37.602;2022-08-14T01:34:18;39.70;;;20.60;;
73814;SDS011;62145;55.648;37.602;2022-08-14T01:36:45;29.93;;;17.17;;
73814;SDS011;62145;55.648;37.602;2022-08-14T01:39:12;32.50;;;17.92;;
73814;SDS011;62145;55.648;37.602;2022-08-14T01:41:43;31.02;;;16.63;;
73814;SDS011;62145;55.648;37.602;2022-08-14T01:44:14;33.38;;;16.77;;
73814;SDS011;62145;55.648;37.602;2022-08-14T01:46:41;39.03;;;21.02;;
73814;SDS011;62145;55.648;37.602;2022-08-14T01:49:12;32.17;;;17.53;;
73814;SDS011;62145;55.648;37.602;2022-08-14T01:51:40;41.17;;;21.27;;
73814;SDS011;62145;55.648;37.602;2022-08-14T01:54:09;26.02;;;16.92;;
73814;SDS011;62145;55.648;37.602;2022-08-14T01:56:37;29.80;;;17.88;;
73814;SDS011;62145;55.648;37.602;2022-08-14T01:59:05;29.33;;;16.02;;
73814;SDS011;62145;55.648;37.602;2022-08-14T02:01:55;48.97;;;22.93;;
73814;SDS011;62145;55.648;37.602;2022-08-14T02:04:24;43.95;;;24.08;;
73814;SDS011;62145;55.648;37.602;2022-08-14T02:07:00;39.63;;;23.50;;
73814;SDS011;62145;55.648;37.602;2022-08-14T02:09:27;42.30;;;23.33;;
73814;SDS011;62145;55.648;37.602;2022-08-14T02:12:02;40.75;;;24.08;;
73814;SDS011;62145;55.648;37.602;2022-08-14T02:14:30;36.17;;;20.53;;
73814;SDS011;62145;55.648;37.602;2022-08-14T02:16:57;45.42;;;24.95;;
73814;SDS011;62145;55.648;37.602;2022-08-14T02:19:25;29.17;;;15.90;;
73814;SDS011;62145;55.648;37.602;2022-08-14T02:21:55;41.83;;;24.33;;
73814;SDS011;62145;55.648;37.602;2022-08-14T02:24:23;36.33;;;22.50;;
73814;SDS011;62145;55.648;37.602;2022-08-14T02:26:50;36.83;;;20.83;;
73814;SDS011;62145;55.648;37.602;2022-08-14T02:29:21;41.33;;;23.98;;
73814;SDS011;62145;55.648;37.602;2022-08-14T02:31:51;41.55;;;24.55;;
73814;SDS011;62145;55.648;37.602;2022-08-14T02:34:21;50.05;;;24.85;;
73814;SDS011;62145;55.648;37.602;2022-08-14T02:36:49;53.03;;;29.08;;
73814;SDS011;62145;55.648;37.602;2022-08-14T02:39:17;38.63;;;22.67;;
73814;SDS011;62145;55.648;37.602;2022-08-14T02:41:43;45.67;;;25.30;;
73814;SDS011;62145;55.648;37.602;2022-08-14T02:44:10;32.67;;;19.65;;
73814;SDS011;62145;55.648;37.602;2022-08-14T02:46:36;46.63;;;24.88;;
73814;SDS011;62145;55.648;37.602;2022-08-14T02:49:03;46.60;;;25.63;;
73814;SDS011;62145;55.648;37.602;2022-08-14T02:51:31;49.10;;;27.17;;
73814;SDS011;62145;55.648;37.602;2022-08-14T02:53:58;48.63;;;27.92;;
73814;SDS011;62145;55.648;37.602;2022-08-14T02:56:26;51.05;;;26.77;;
73814;SDS011;62145;55.648;37.602;2022-08-14T02:58:53;48.20;;;25.95;;
73814;SDS011;62145;55.648;37.602;2022-08-14T03:01:20;48.20;;;27.88;;
73814;SDS011;62145;55.648;37.602;2022-08-14T03:03:47;48.07;;;28.60;;
73814;SDS011;62145;55.648;37.602;2022-08-14T03:06:17;47.08;;;28.33;;
73814;SDS011;62145;55.648;37.602;2022-08-14T03:08:49;46.95;;;28.75;;
73814;SDS011;62145;55.648;37.602;2022-08-14T03:11:17;39.67;;;22.20;;
73814;SDS011;62145;55.648;37.602;2022-08-14T03:13:45;35.05;;;22.00;;
73814;SDS011;62145;55.648;37.602;2022-08-14T03:16:13;40.27;;;25.00;;
73814;SDS011;62145;55.648;37.602;2022-08-14T03:18:41;35.03;;;22.48;;
73814;SDS011;62145;55.648;37.602;2022-08-14T03:21:13;31.75;;;21.95;;
73814;SDS011;62145;55.648;37.602;2022-08-14T03:23:41;35.20;;;21.67;;
73814;SDS011;62145;55.648;37.602;2022-08-14T03:26:09;33.05;;;21.13;;
73814;SDS011;62145;55.648;37.602;2022-08-14T03:28:36;34.63;;;22.27;;
73814;SDS011;62145;55.648;37.602;2022-08-14T03:31:06;28.83;;;20.98;;
73814;SDS011;62145;55.648;37.602;2022-08-14T03:33:32;30.00;;;21.45;;
73814;SDS011;62145;55.648;37.602;2022-08-14T03:36:02;32.20;;;21.45;;
73814;SDS011;62145;55.648;37.602;2022-08-14T03:38:33;30.98;;;20.65;;
73814;SDS011;62145;55.648;37.602;2022-08-14T03:40:58;31.80;;;20.53;;
73814;SDS011;62145;55.648;37.602;2022-08-14T03:43:24;28.33;;;20.20;;
73814;SDS011;62145;55.648;37.602;2022-08-14T03:45:51;30.60;;;20.23;;
73814;SDS011;62145;55.648;37.602;2022-08-14T03:48:17;27.48;;;20.52;;
73814;SDS011;62145;55.648;37.602;2022-08-14T03:50:46;29.23;;;20.47;;
73814;SDS011;62145;55.648;37.602;2022-08-14T03:53:14;30.58;;;20.55;;
73814;SDS011;62145;55.648;37.602;2022-08-14T03:55:40;30.55;;;21.35;;
73814;SDS011;62145;55.648;37.602;2022-08-14T03:58:07;31.88;;;21.63;;
73814;SDS011;62145;55.648;37.602;2022-08-14T04:00:34;31.85;;;21.75;;
73814;SDS011;62145;55.648;37.602;2022-08-14T04:03:05;30.30;;;22.10;;
73814;SDS011;62145;55.648;37.602;2022-08-14T04:05:33;26.42;;;21.15;;
73814;SDS011;62145;55.648;37.602;2022-08-14T04:08:00;30.95;;;22.20;;
73814;SDS011;62145;55.648;37.602;2022-08-14T04:10:26;33.30;;;22.08;;
73814;SDS011;62145;55.648;37.602;2022-08-14T04:12:52;31.40;;;21.08;;
73814;SDS011;62145;55.648;37.602;2022-08-14T04:15:23;30.93;;;21.77;;
73814;SDS011;62145;55.648;37.602;2022-08-14T04:17:49;33.05;;;21.35;;
73814;SDS011;62145;55.648;37.602;2022-08-14T04:20:15;29.08;;;20.15;;
73814;SDS011;62145;55.648;37.602;2022-08-14T04:22:41;26.13;;;18.80;;
73814;SDS011;62145;55.648;37.602;2022-08-14T04:25:08;25.65;;;20.20;;
73814;SDS011;62145;55.648;37.602;2022-08-14T04:27:36;25.67;;;19.10;;
73814;SDS011;62145;55.648;37.602;2022-08-14T04:30:03;25.58;;;19.33;;
73814;SDS011;62145;55.648;37.602;2022-08-14T04:32:30;25.48;;;20.08;;
73814;SDS011;62145;55.648;37.602;2022-08-14T04:34:58;27.13;;;20.73;;
73814;SDS011;62145;55.648;37.602;2022-08-14T04:37:25;25.23;;;19.30;;
73814;SDS011;62145;55.648;37.602;2022-08-14T04:40:10;22.35;;;17.73;;
73814;SDS011;62145;55.648;37.602;2022-08-14T04:42:55;24.45;;;19.67;;
73814;SDS011;62145;55.648;37.602;2022-08-14T04:45:39;26.77;;;19.38;;
73814;SDS011;62145;55.648;37.602;2022-08-14T04:48:06;24.63;;;18.43;;
73814;SDS011;62145;55.648;37.602;2022-08-14T04:50:43;23.42;;;18.75;;
73814;SDS011;62145;55.648;37.602;2022-08-14T04:53:15;20.63;;;15.95;;
73814;SDS011;62145;55.648;37.602;2022-08-14T04:55:46;21.50;;;16.60;;
73814;SDS011;62145;55.648;37.602;2022-08-14T04:58:13;17.35;;;12.25;;
73814;SDS011;62145;55.648;37.602;2022-08-14T05:00:43;18.67;;;13.90;;
73814;SDS011;62145;55.648;37.602;2022-08-14T05:03:09;18.20;;;13.82;;
73814;SDS011;62145;55.648;37.602;2022-08-14T05:05:35;17.30;;;13.55;;
73814;SDS011;62145;55.648;37.602;2022-08-14T05:08:05;17.77;;;13.65;;
73814;SDS011;62145;55.648;37.602;2022-08-14T05:10:39;15.97;;;13.83;;
73814;SDS011;62145;55.648;37.602;2022-08-14T05:13:07;18.45;;;14.02;;
73814;SDS011;62145;55.648;37.602;2022-08-14T05:15:37;19.75;;;15.38;;
73814;SDS011;62145;55.648;37.602;2022-08-14T05:18:08;20.67;;;15.82;;
73814;SDS011;62145;55.648;37.602;2022-08-14T05:20:38;21.05;;;16.77;;
73814;SDS011;62145;55.648;37.602;2022-08-14T05:23:06;25.90;;;18.10;;
73814;SDS011;62145;55.648;37.602;2022-08-14T05:25:32;18.35;;;15.50;;
73814;SDS011;62145;55.648;37.602;2022-08-14T05:28:13;17.52;;;14.32;;
73814;SDS011;62145;55.648;37.602;2022-08-14T05:30:47;19.13;;;14.15;;
73814;SDS011;62145;55.648;37.602;2022-08-14T05:33:15;23.05;;;16.70;;
73814;SDS011;62145;55.648;37.602;2022-08-14T05:35:43;20.13;;;15.07;;
73814;SDS011;62145;55.648;37.602;2022-08-14T05:38:11;23.25;;;15.98;;
73814;SDS011;62145;55.648;37.602;2022-08-14T05:40:45;23.38;;;17.70;;
73814;SDS011;62145;55.648;37.602;2022-08-14T05:43:11;20.83;;;16.83;;
73814;SDS011;62145;55.648;37.602;2022-08-14T05:45:38;23.48;;;15.82;;
73814;SDS011;62145;55.648;37.602;2022-08-14T05:48:04;24.83;;;14.87;;
73814;SDS011;62145;55.648;37.602;2022-08-14T05:50:31;20.58;;;15.43;;
73814;SDS011;62145;55.648;37.602;2022-08-14T05:52:58;22.67;;;15.68;;
73814;SDS011;62145;55.648;37.602;2022-08-14T05:55:23;18.88;;;12.80;;
73814;SDS011;62145;55.648;37.602;2022-08-14T05:57:51;16.30;;;11.40;;
73814;SDS011;62145;55.648;37.602;2022-08-14T06:00:22;17.53;;;12.80;;
73814;SDS011;62145;55.648;37.602;2022-08-14T06:02:53;18.02;;;11.18;;
73814;SDS011;62145;55.648;37.602;2022-08-14T06:05:21;15.00;;;12.02;;
73814;SDS011;62145;55.648;37.602;2022-08-14T06:07:47;16.42;;;11.77;;
73814;SDS011;62145;55.648;37.602;2022-08-14T06:10:13;13.27;;;10.77;;
73814;SDS011;62145;55.648;37.602;2022-08-14T06:12:39;12.45;;;9.52;;
73814;SDS011;62145;55.648;37.602;2022-08-14T06:15:06;14.93;;;9.90;;
73814;SDS011;62145;55.648;37.602;2022-08-14T06:17:43;13.70;;;10.43;;
73814;SDS011;62145;55.648;37.602;2022-08-14T06:20:10;14.63;;;10.02;;
73814;SDS011;62145;55.648;37.602;2022-08-14T06:22:37;15.53;;;10.10;;
73814;SDS011;62145;55.648;37.602;2022-08-14T06:25:03;17.10;;;9.63;;
73814;SDS011;62145;55.648;37.602;2022-08-14T06:27:37;12.15;;;9.52;;
73814;SDS011;62145;55.648;37.602;2022-08-14T06:30:04;14.40;;;10.50;;
73814;SDS011;62145;55.648;37.602;2022-08-14T06:32:34;15.82;;;11.13;;
73814;SDS011;62145;55.648;37.602;2022-08-14T06:35:02;11.47;;;10.17;;
73814;SDS011;62145;55.648;37.602;2022-08-14T06:40:19;8.27;;;7.40;;
73814;SDS011;62145;55.648;37.602;2022-08-14T06:42:47;8.38;;;7.45;;
73814;SDS011;62145;55.648;37.602;2022-08-14T06:45:14;9.80;;;7.22;;
73814;SDS011;62145;55.648;37.602;2022-08-14T06:47:41;10.70;;;7.80;;
73814;SDS011;62145;55.648;37.602;2022-08-14T06:50:11;10.23;;;7.18;;
73814;SDS011;62145;55.648;37.602;2022-08-14T06:52:39;10.85;;;7.93;;
73814;SDS011;62145;55.648;37.602;2022-08-14T06:55:06;11.40;;;8.32;;
73814;SDS011;62145;55.648;37.602;2022-08-14T06:57:34;9.98;;;7.25;;
73814;SDS011;62145;55.648;37.602;2022-08-14T07:00:08;7.87;;;6.57;;
73814;SDS011;62145;55.648;37.602;2022-08-14T07:02:35;13.00;;;7.82;;
73814;SDS011;62145;55.648;37.602;2022-08-14T07:05:20;9.73;;;6.50;;
73814;SDS011;62145;55.648;37.602;2022-08-14T07:08:04;8.15;;;6.18;;
73814;SDS011;62145;55.648;37.602;2022-08-14T07:10:31;9.57;;;6.90;;
73814;SDS011;62145;55.648;37.602;2022-08-14T07:12:57;8.43;;;6.28;;
73814;SDS011;62145;55.648;37.602;2022-08-14T07:15:23;7.70;;;6.90;;
73814;SDS011;62145;55.648;37.602;2022-08-14T07:17:50;8.25;;;6.18;;
73814;SDS011;62145;55.648;37.602;2022-08-14T07:20:16;8.20;;;6.53;;
73814;SDS011;62145;55.648;37.602;2022-08-14T07:22:47;9.80;;;6.30;;
73814;SDS011;62145;55.648;37.602;2022-08-14T07:25:14;7.93;;;6.10;;
73814;SDS011;62145;55.648;37.602;2022-08-14T07:27:41;7.25;;;5.72;;
73814;SDS011;62145;55.648;37.602;2022-08-14T07:30:07;7.70;;;5.55;;
73814;SDS011;62145;55.648;37.602;2022-08-14T07:32:53;8.60;;;5.85;;
73814;SDS011;62145;55.648;37.602;2022-08-14T07:35:18;9.03;;;5.80;;
73814;SDS011;62145;55.648;37.602;2022-08-14T07:37:47;6.45;;;5.35;;
73814;SDS011;62145;55.648;37.602;2022-08-14T07:40:13;9.25;;;5.20;;
73814;SDS011;62145;55.648;37.602;2022-08-14T07:42:39;6.38;;;4.38;;
73814;SDS011;62145;55.648;37.602;2022-08-14T07:45:06;5.87;;;5.13;;
73814;SDS011;62145;55.648;37.602;2022-08-14T07:47:37;6.28;;;5.00;;
73814;SDS011;62145;55.648;37.602;2022-08-14T07:50:14;7.00;;;5.35;;
73814;SDS011;62145;55.648;37.602;2022-08-14T07:52:42;6.50;;;5.15;;
73814;SDS011;62145;55.648;37.602;2022-08-14T07:55:10;6.78;;;5.25;;
73814;SDS011;62145;55.648;37.602;2022-08-14T07:57:38;8.43;;;5.30;;
73814;SDS011;62145;55.648;37.602;2022-08-14T08:00:09;7.60;;;5.40;;
73814;SDS011;62145;55.648;37.602;2022-08-14T08:02:38;8.43;;;5.90;;
73814;SDS011;62145;55.648;37.602;2022-08-14T08:05:08;8.80;;;5.40;;
73814;SDS011;62145;55.648;37.602;2022-08-14T08:07:35;6.45;;;5.70;;
73814;SDS011;62145;55.648;37.602;2022-08-14T08:10:11;8.37;;;5.30;;
73814;SDS011;62145;55.648;37.602;2022-08-14T08:13:13;7.07;;;5.47;;
73814;SDS011;62145;55.648;37.602;2022-08-14T08:15:51;6.80;;;5.43;;
73814;SDS011;62145;55.648;37.602;2022-08-14T08:18:18;7.72;;;6.32;;
73814;SDS011;62145;55.648;37.602;2022-08-14T08:20:45;7.15;;;5.80;;
73814;SDS011;62145;55.648;37.602;2022-08-14T08:23:13;6.70;;;5.90;;
73814;SDS011;62145;55.648;37.602;2022-08-14T08:25:41;6.65;;;5.85;;
73814;SDS011;62145;55.648;37.602;2022-08-14T08:28:18;6.68;;;5.97;;
73814;SDS011;62145;55.648;37.602;2022-08-14T08:30:48;7.40;;;6.25;;
73814;SDS011;62145;55.648;37.602;2022-08-14T08:33:21;8.68;;;6.70;;
73814;SDS011;62145;55.648;37.602;2022-08-14T08:35:48;8.23;;;6.97;;
73814;SDS011;62145;55.648;37.602;2022-08-14T08:38:15;8.73;;;6.80;;
73814;SDS011;62145;55.648;37.602;2022-08-14T08:40:45;9.50;;;7.25;;
73814;SDS011;62145;55.648;37.602;2022-08-14T08:43:20;10.10;;;6.45;;
73814;SDS011;62145;55.648;37.602;2022-08-14T08:45:58;10.18;;;6.72;;
73814;SDS011;62145;55.648;37.602;2022-08-14T08:48:29;8.20;;;6.97;;
73814;SDS011;62145;55.648;37.602;2022-08-14T08:51:18;7.97;;;6.35;;
73814;SDS011;62145;55.648;37.602;2022-08-14T08:53:54;8.82;;;6.82;;
73814;SDS011;62145;55.648;37.602;2022-08-14T08:59:18;9.10;;;7.13;;
73814;SDS011;62145;55.648;37.602;2022-08-14T09:01:52;9.30;;;7.20;;
73814;SDS011;62145;55.648;37.602;2022-08-14T09:04:24;10.00;;;7.32;;
73814;SDS011;62145;55.648;37.602;2022-08-14T09:06:53;15.07;;;7.38;;
73814;SDS011;62145;55.648;37.602;2022-08-14T09:09:20;8.35;;;6.88;;
73814;SDS011;62145;55.648;37.602;2022-08-14T09:11:52;12.40;;;7.38;;
73814;SDS011;62145;55.648;37.602;2022-08-14T09:14:23;10.27;;;7.13;;
73814;SDS011;62145;55.648;37.602;2022-08-14T09:16:50;9.23;;;7.00;;
73814;SDS011;62145;55.648;37.602;2022-08-14T09:19:16;9.52;;;6.72;;
73814;SDS011;62145;55.648;37.602;2022-08-14T09:21:43;9.90;;;7.28;;
73814;SDS011;62145;55.648;37.602;2022-08-14T09:24:11;7.72;;;6.60;;
73814;SDS011;62145;55.648;37.602;2022-08-14T09:26:37;8.73;;;7.20;;
73814;SDS011;62145;55.648;37.602;2022-08-14T09:29:04;10.45;;;7.00;;
73814;SDS011;62145;55.648;37.602;2022-08-14T09:31:33;11.77;;;6.90;;
73814;SDS011;62145;55.648;37.602;2022-08-14T09:39:45;9.40;;;7.20;;
73814;SDS011;62145;55.648;37.602;2022-08-14T09:45:14;9.73;;;8.05;;
73814;SDS011;62145;55.648;37.602;2022-08-14T09:47:49;8.63;;;7.78;;
73814;SDS011;62145;55.648;37.602;2022-08-14T09:50:29;9.90;;;7.40;;
73814;SDS011;62145;55.648;37.602;2022-08-14T09:53:02;8.83;;;7.07;;
73814;SDS011;62145;55.648;37.602;2022-08-14T09:55:33;8.63;;;6.75;;
73814;SDS011;62145;55.648;37.602;2022-08-14T10:00:41;10.80;;;7.20;;
73814;SDS011;62145;55.648;37.602;2022-08-14T10:03:10;9.85;;;7.30;;
73814;SDS011;62145;55.648;37.602;2022-08-14T10:05:36;9.53;;;7.03;;
73814;SDS011;62145;55.648;37.602;2022-08-14T10:08:03;8.23;;;6.95;;
73814;SDS011;62145;55.648;37.602;2022-08-14T10:10:55;8.23;;;6.80;;
73814;SDS011;62145;55.648;37.602;2022-08-14T10:13:24;9.18;;;7.15;;
73814;SDS011;62145;55.648;37.602;2022-08-14T10:15:57;10.23;;;7.53;;
73814;SDS011;62145;55.648;37.602;2022-08-14T10:18:28;10.17;;;7.20;;
73814;SDS011;62145;55.648;37.602;2022-08-14T10:20:56;10.98;;;7.07;;
73814;SDS011;62145;55.648;37.602;2022-08-14T10:23:41;9.18;;;7.47;;
73814;SDS011;62145;55.648;37.602;2022-08-14T10:26:17;8.98;;;8.02;;
73814;SDS011;62145;55.648;37.602;2022-08-14T10:28:45;10.73;;;7.32;;
73814;SDS011;62145;55.648;37.602;2022-08-14T10:31:20;10.53;;;7.57;;
73814;SDS011;62145;55.648;37.602;2022-08-14T10:34:10;9.43;;;7.60;;
73814;SDS011;62145;55.648;37.602;2022-08-14T10:36:43;9.88;;;7.30;;
73814;SDS011;62145;55.648;37.602;2022-08-14T10:39:20;10.00;;;7.57;;
73814;SDS011;62145;55.648;37.602;2022-08-14T10:41:59;11.65;;;7.50;;
73814;SDS011;62145;55.648;37.602;2022-08-14T10:44:34;12.20;;;7.73;;
73814;SDS011;62145;55.648;37.602;2022-08-14T10:47:03;15.75;;;8.35;;
73814;SDS011;62145;55.648;37.602;2022-08-14T10:49:34;10.55;;;8.10;;
73814;SDS011;62145;55.648;37.602;2022-08-14T10:52:05;10.43;;;7.80;;
73814;SDS011;62145;55.648;37.602;2022-08-14T10:54:36;8.75;;;7.40;;
73814;SDS011;62145;55.648;37.602;2022-08-14T10:59:46;9.93;;;7.20;;
73814;SDS011;62145;55.648;37.602;2022-08-14T11:02:21;11.57;;;7.13;;
73814;SDS011;62145;55.648;37.602;2022-08-14T11:05:13;12.25;;;7.68;;
73814;SDS011;62145;55.648;37.602;2022-08-14T11:08:02;9.73;;;7.43;;
73814;SDS011;62145;55.648;37.602;2022-08-14T11:10:38;12.27;;;7.17;;
73814;SDS011;62145;55.648;37.602;2022-08-14T11:13:04;9.52;;;7.43;;
73814;SDS011;62145;55.648;37.602;2022-08-14T11:15:31;11.05;;;7.40;;
73814;SDS011;62145;55.648;37.602;2022-08-14T11:17:58;14.65;;;7.97;;
73814;SDS011;62145;55.648;37.602;2022-08-14T11:20:26;10.48;;;7.65;;
73814;SDS011;62145;55.648;37.602;2022-08-14T11:22:55;8.80;;;7.13;;
73814;SDS011;62145;55.648;37.602;2022-08-14T11:25:23;10.90;;;7.85;;
73814;SDS011;62145;55.648;37.602;2022-08-14T11:27:55;10.10;;;7.80;;
73814;SDS011;62145;55.648;37.602;2022-08-14T11:30:25;9.13;;;7.20;;
73814;SDS011;62145;55.648;37.602;2022-08-14T11:32:54;12.00;;;8.13;;
73814;SDS011;62145;55.648;37.602;2022-08-14T11:35:24;8.27;;;7.17;;
73814;SDS011;62145;55.648;37.602;2022-08-14T11:37:57;9.10;;;7.40;;
73814;SDS011;62145;55.648;37.602;2022-08-14T11:40:29;9.80;;;7.38;;
73814;SDS011;62145;55.648;37.602;2022-08-14T11:42:59;11.55;;;7.47;;
73814;SDS011;62145;55.648;37.602;2022-08-14T11:45:31;10.32;;;7.50;;
73814;SDS011;62145;55.648;37.602;2022-08-14T11:47:59;8.60;;;7.53;;
73814;SDS011;62145;55.648;37.602;2022-08-14T11:50:28;9.98;;;7.68;;
73814;SDS011;62145;55.648;37.602;2022-08-14T11:52:56;9.32;;;8.15;;
73814;SDS011;62145;55.648;37.602;2022-08-14T11:55:23;9.23;;;8.15;;
73814;SDS011;62145;55.648;37.602;2022-08-14T11:58:00;9.23;;;8.23;;
73814;SDS011;62145;55.648;37.602;2022-08-14T12:00:28;8.93;;;7.80;;
73814;SDS011;62145;55.648;37.602;2022-08-14T12:02:58;10.32;;;7.95;;
73814;SDS011;62145;55.648;37.602;2022-08-14T12:05:30;11.88;;;8.40;;
73814;SDS011;62145;55.648;37.602;2022-08-14T12:08:00;10.63;;;8.77;;
73814;SDS011;62145;55.648;37.602;2022-08-14T12:10:26;9.82;;;7.88;;
73814;SDS011;62145;55.648;37.602;2022-08-14T12:12:54;10.60;;;8.03;;
73814;SDS011;62145;55.648;37.602;2022-08-14T12:15:31;10.27;;;8.30;;
73814;SDS011;62145;55.648;37.602;2022-08-14T12:17:58;9.13;;;8.10;;
73814;SDS011;62145;55.648;37.602;2022-08-14T12:20:32;10.35;;;8.93;;
73814;SDS011;62145;55.648;37.602;2022-08-14T12:23:01;9.23;;;7.78;;
73814;SDS011;62145;55.648;37.602;2022-08-14T12:25:32;12.17;;;8.33;;
73814;SDS011;62145;55.648;37.602;2022-08-14T12:28:03;9.45;;;7.90;;
73814;SDS011;62145;55.648;37.602;2022-08-14T12:30:36;9.40;;;8.10;;
73814;SDS011;62145;55.648;37.602;2022-08-14T12:33:03;10.48;;;8.40;;
73814;SDS011;62145;55.648;37.602;2022-08-14T12:35:41;12.77;;;8.38;;
73814;SDS011;62145;55.648;37.602;2022-08-14T12:38:09;10.47;;;8.20;;
73814;SDS011;62145;55.648;37.602;2022-08-14T12:40:48;10.77;;;7.82;;
73814;SDS011;62145;55.648;37.602;2022-08-14T12:43:16;9.38;;;7.80;;
73814;SDS011;62145;55.648;37.602;2022-08-14T12:46:01;11.23;;;8.20;;
73814;SDS011;62145;55.648;37.602;2022-08-14T12:48:28;10.35;;;8.00;;
73814;SDS011;62145;55.648;37.602;2022-08-14T12:50:55;10.77;;;8.17;;
73814;SDS011;62145;55.648;37.602;2022-08-14T12:53:31;9.70;;;8.02;;
73814;SDS011;62145;55.648;37.602;2022-08-14T12:55:59;9.02;;;7.90;;
73814;SDS011;62145;55.648;37.602;2022-08-14T12:58:28;10.85;;;8.77;;
73814;SDS011;62145;55.648;37.602;2022-08-14T13:00:55;8.82;;;7.72;;
73814;SDS011;62145;55.648;37.602;2022-08-14T13:03:25;11.03;;;8.23;;
73814;SDS011;62145;55.648;37.602;2022-08-14T13:05:53;10.02;;;8.38;;
73814;SDS011;62145;55.648;37.602;2022-08-14T13:08:19;10.77;;;8.30;;
73814;SDS011;62145;55.648;37.602;2022-08-14T13:10:50;10.30;;;8.25;;
73814;SDS011;62145;55.648;37.602;2022-08-14T13:13:18;10.07;;;8.30;;
73814;SDS011;62145;55.648;37.602;2022-08-14T13:15:45;8.67;;;7.50;;
73814;SDS011;62145;55.648;37.602;2022-08-14T13:18:13;8.80;;;7.32;;
73814;SDS011;62145;55.648;37.602;2022-08-14T13:20:41;10.63;;;7.50;;
73814;SDS011;62145;55.648;37.602;2022-08-14T13:23:08;10.18;;;7.43;;
73814;SDS011;62145;55.648;37.602;2022-08-14T13:25:34;11.63;;;7.32;;
73814;SDS011;62145;55.648;37.602;2022-08-14T13:28:04;9.23;;;7.40;;
73814;SDS011;62145;55.648;37.602;2022-08-14T13:30:31;9.75;;;7.32;;
73814;SDS011;62145;55.648;37.602;2022-08-14T13:32:57;10.70;;;7.25;;
73814;SDS011;62145;55.648;37.602;2022-08-14T13:35:24;9.77;;;7.20;;
73814;SDS011;62145;55.648;37.602;2022-08-14T13:37:53;10.30;;;7.27;;
73814;SDS011;62145;55.648;37.602;2022-08-14T13:40:20;9.05;;;7.78;;
73814;SDS011;62145;55.648;37.602;2022-08-14T13:42:48;8.98;;;7.60;;
73814;SDS011;62145;55.648;37.602;2022-08-14T13:45:18;9.45;;;7.85;;
73814;SDS011;62145;55.648;37.602;2022-08-14T13:47:46;9.75;;;7.60;;
73814;SDS011;62145;55.648;37.602;2022-08-14T13:50:13;11.07;;;7.93;;
73814;SDS011;62145;55.648;37.602;2022-08-14T13:52:44;11.02;;;8.15;;
73814;SDS011;62145;55.648;37.602;2022-08-14T13:55:24;10.10;;;7.90;;
73814;SDS011;62145;55.648;37.602;2022-08-14T13:57:54;8.85;;;7.78;;
73814;SDS011;62145;55.648;37.602;2022-08-14T14:00:22;9.98;;;7.22;;
73814;SDS011;62145;55.648;37.602;2022-08-14T14:02:48;8.87;;;7.13;;
73814;SDS011;62145;55.648;37.602;2022-08-14T14:05:14;8.52;;;6.97;;
73814;SDS011;62145;55.648;37.602;2022-08-14T14:07:46;9.15;;;7.05;;
73814;SDS011;62145;55.648;37.602;2022-08-14T14:10:14;9.20;;;7.20;;
73814;SDS011;62145;55.648;37.602;2022-08-14T14:12:42;10.63;;;7.13;;
73814;SDS011;62145;55.648;37.602;2022-08-14T14:15:12;10.05;;;6.82;;
73814;SDS011;62145;55.648;37.602;2022-08-14T14:17:40;8.23;;;6.85;;
73814;SDS011;62145;55.648;37.602;2022-08-14T14:20:10;9.27;;;7.15;;
73814;SDS011;62145;55.648;37.602;2022-08-14T14:22:39;8.52;;;6.88;;
73814;SDS011;62145;55.648;37.602;2022-08-14T14:25:08;9.53;;;7.40;;
73814;SDS011;62145;55.648;37.602;2022-08-14T14:27:36;8.32;;;6.90;;
73814;SDS011;62145;55.648;37.602;2022-08-14T14:30:04;10.27;;;7.10;;
73814;SDS011;62145;55.648;37.602;2022-08-14T14:32:31;10.75;;;6.90;;
73814;SDS011;62145;55.648;37.602;2022-08-14T14:34:58;11.13;;;7.37;;
73814;SDS011;62145;55.648;37.602;2022-08-14T14:37:26;12.57;;;8.18;;
73814;SDS011;62145;55.648;37.602;2022-08-14T14:39:52;8.65;;;6.93;;
73814;SDS011;62145;55.648;37.602;2022-08-14T14:42:26;13.10;;;7.20;;
73814;SDS011;62145;55.648;37.602;2022-08-14T14:45:03;10.32;;;7.57;;
73814;SDS011;62145;55.648;37.602;2022-08-14T14:47:31;10.33;;;7.10;;
73814;SDS011;62145;55.648;37.602;2022-08-14T14:49:59;9.05;;;6.95;;
73814;SDS011;62145;55.648;37.602;2022-08-14T14:52:28;9.18;;;7.05;;
73814;SDS011;62145;55.648;37.602;2022-08-14T14:54:57;9.95;;;7.25;;